Airfield :
LOGIN :

Register | Disclaimer

   EN    FR    IT 

 










Legend :    VFR   Marginal VFR   IFR   Intensive IFR   Very Intensive IFR
Visi :
Ceiling :
>= 8 km
>= 3000ft
5 to 8 km
1000 to 3000 ft
1500m to 5 km
500 to 1000 ft
800 to 1500m
200 to 500 ft
< 800m
< 200 ft
Symbols :   Thunderstorms  Fog  Heavy snow  Heavy precipitations  Wind > 20 kt
SIGMETs :     Misc.  Thunderstorms  Icing  Turbulence  Mountain Waves  Volcanic Ashes






- Airport Elevation : 22 ft
- IATA code : TUN


DTTA - Tunis Carthage

CURRENT METAR :
  • 110330Z 31006KT 9999 FEW030 17/15 Q1012

EXPIRED METARs :
  • 110300Z 33003KT 9999 FEW030 17/15 Q1012
  • 110230Z 10003KT 050V150 9999 FEW030 18/15 Q1011
  • 110200Z 11005KT 050V210 9999 FEW030 19/15 Q1011
  • 110130Z 11005KT 070V160 9999 FEW030 19/15 Q1011
  • 110100Z 10005KT 060V150 9999 FEW030 19/14 Q1011

TAF TAF DTTA
Valid from the 11 at 00:00 until the 12 at 00:00 UTC


102300Z 1100/1124 12006KT 9999 FEW026
TEMPO 1115/1118 32019G29KT
PROB40
TEMPO 1118/1124 33038G48KT 4000 SQ



MET'MAP, your aeronautical weather chart ! - Copyright ORBIFLY December 2007 - Disclaimer

ORBIFLY MET'MAP TEAM :

Programming & Development : Alexandra Zaïnal
Concept & original design : Baudouin d'Aumeries
Assistance for programming : Marc-Olivier Méhu
Technical & hardware support : Manuel Goepfert

Contact : metmap@orbifly.com




SOURCES & CREDITS :

   NOAA